createdAt,value
2022-11-30T00:00:13.881Z,18.58
2022-11-30T00:02:40.197Z,17.52
2022-11-30T00:05:06.686Z,17.13
2022-11-30T00:07:33.521Z,17.67
2022-11-30T00:09:59.907Z,18.05
2022-11-30T00:12:26.190Z,19.08
2022-11-30T00:14:52.549Z,17.80
2022-11-30T00:17:18.832Z,17.67
2022-11-30T00:19:45.130Z,17.67
2022-11-30T00:22:11.758Z,18.00
2022-11-30T00:24:38.046Z,16.70
2022-11-30T00:27:04.430Z,17.88
2022-11-30T00:29:30.727Z,18.90
2022-11-30T00:31:56.989Z,19.83
2022-11-30T00:34:23.311Z,18.88
2022-11-30T00:36:49.639Z,16.35
2022-11-30T00:39:15.876Z,18.02
2022-11-30T00:41:42.707Z,18.33
2022-11-30T00:44:08.953Z,17.13
2022-11-30T00:46:35.275Z,18.33
2022-11-30T00:49:01.541Z,18.05
2022-11-30T00:51:27.769Z,18.15
2022-11-30T00:53:54.161Z,17.15
2022-11-30T00:56:20.482Z,18.77
2022-11-30T00:58:46.902Z,17.23
2022-11-30T01:01:13.836Z,18.30
2022-11-30T01:03:40.334Z,18.05
2022-11-30T01:06:07.818Z,17.90
2022-11-30T01:08:34.377Z,18.70
2022-11-30T01:11:27.025Z,17.90
2022-11-30T01:13:53.637Z,18.33
2022-11-30T01:16:21.791Z,18.13
2022-11-30T01:18:48.475Z,16.15
2022-11-30T01:21:16.283Z,18.48
2022-11-30T01:23:42.705Z,17.80
2022-11-30T01:26:09.411Z,18.17
2022-11-30T01:28:35.964Z,18.17
2022-11-30T01:31:04.516Z,16.85
2022-11-30T01:33:30.840Z,17.98
2022-11-30T01:36:00.838Z,17.58
2022-11-30T01:38:27.678Z,17.50
2022-11-30T01:40:54.010Z,18.10
2022-11-30T01:43:20.278Z,17.45
2022-11-30T01:45:48.513Z,18.63
2022-11-30T01:48:14.987Z,18.15
2022-11-30T01:50:41.753Z,17.63
2022-11-30T01:53:09.750Z,17.63
2022-11-30T01:55:37.639Z,17.67
2022-11-30T01:58:05.888Z,18.13
2022-11-30T02:00:32.471Z,18.20
2022-11-30T02:03:04.708Z,17.67
2022-11-30T02:05:31.425Z,17.30
2022-11-30T02:07:57.827Z,16.55
2022-11-30T02:10:26.602Z,16.90
2022-11-30T02:13:18.069Z,17.45
2022-11-30T02:16:04.662Z,15.93
2022-11-30T02:18:32.285Z,16.60
2022-11-30T02:21:06.111Z,17.77
2022-11-30T02:23:35.391Z,16.05
2022-11-30T02:26:26.007Z,16.90
2022-11-30T02:29:04.020Z,17.33
2022-11-30T02:31:34.418Z,17.20
2022-11-30T02:34:02.642Z,17.50
2022-11-30T02:36:29.774Z,17.60
2022-11-30T02:38:57.011Z,17.50
2022-11-30T02:41:23.282Z,18.20
2022-11-30T02:43:50.251Z,17.00
2022-11-30T02:46:21.111Z,18.65
2022-11-30T02:48:54.947Z,17.90
2022-11-30T02:51:24.024Z,17.33
2022-11-30T02:53:50.493Z,16.48
2022-11-30T02:56:17.652Z,18.13
2022-11-30T02:58:44.055Z,17.50
2022-11-30T03:01:10.981Z,17.75
2022-11-30T03:03:37.362Z,17.10
2022-11-30T03:06:03.695Z,18.50
2022-11-30T03:08:29.966Z,18.50
2022-11-30T03:10:56.270Z,17.95
2022-11-30T03:13:22.554Z,17.75
2022-11-30T03:15:49.056Z,19.13
2022-11-30T03:18:15.430Z,16.67
2022-11-30T03:20:42.804Z,19.08
2022-11-30T03:23:09.437Z,17.88
2022-11-30T03:25:35.688Z,16.92
2022-11-30T03:28:02.206Z,18.17
2022-11-30T03:30:28.468Z,17.77
2022-11-30T03:32:54.720Z,17.52
2022-11-30T03:35:20.998Z,17.73
2022-11-30T03:37:47.661Z,18.38
2022-11-30T03:40:13.970Z,18.23
2022-11-30T03:42:40.714Z,19.33
2022-11-30T03:45:07.154Z,17.27
2022-11-30T03:47:33.381Z,19.15
2022-11-30T03:49:59.636Z,18.02
2022-11-30T03:52:25.936Z,19.65
2022-11-30T03:54:52.235Z,17.55
2022-11-30T03:57:18.524Z,17.65
2022-11-30T03:59:44.802Z,16.55
2022-11-30T04:02:11.116Z,17.60
2022-11-30T04:04:37.873Z,18.23
2022-11-30T04:07:04.224Z,17.73
2022-11-30T04:09:31.193Z,17.92
2022-11-30T04:11:57.524Z,17.73
2022-11-30T04:14:23.839Z,17.92
2022-11-30T04:16:50.101Z,17.42
2022-11-30T04:19:16.506Z,18.42
2022-11-30T04:21:42.860Z,18.17
2022-11-30T04:24:09.274Z,17.83
2022-11-30T04:26:35.664Z,17.73
2022-11-30T04:29:04.497Z,18.00
2022-11-30T04:31:31.441Z,17.67
2022-11-30T04:33:57.790Z,17.88
2022-11-30T04:36:24.119Z,17.27
2022-11-30T04:38:50.477Z,18.77
2022-11-30T04:41:16.791Z,18.10
2022-11-30T04:43:43.067Z,16.63
2022-11-30T04:46:09.422Z,16.88
2022-11-30T04:48:35.817Z,17.05
2022-11-30T04:51:03.007Z,17.20
2022-11-30T04:53:29.339Z,18.05
2022-11-30T04:55:55.602Z,17.80
2022-11-30T04:58:21.902Z,19.05
2022-11-30T05:00:48.285Z,18.30
2022-11-30T05:03:14.570Z,17.77
2022-11-30T05:05:40.913Z,17.83
2022-11-30T05:08:07.201Z,18.48
2022-11-30T05:10:33.794Z,17.58
2022-11-30T05:13:00.102Z,17.42
2022-11-30T05:15:26.540Z,16.92
2022-11-30T05:17:52.853Z,16.77
2022-11-30T05:20:19.210Z,16.48
2022-11-30T05:22:45.505Z,16.75
2022-11-30T05:25:11.928Z,15.80
2022-11-30T05:27:38.463Z,16.83
2022-11-30T05:30:05.700Z,17.52
2022-11-30T05:32:32.061Z,15.40
2022-11-30T05:34:58.803Z,16.55
2022-11-30T05:37:25.315Z,17.15
2022-11-30T05:39:51.670Z,17.25
2022-11-30T05:42:17.985Z,17.30
2022-11-30T05:44:45.385Z,16.45
2022-11-30T05:47:12.178Z,16.45
2022-11-30T05:49:38.516Z,17.17
2022-11-30T05:52:04.936Z,16.88
2022-11-30T05:54:31.257Z,16.50
2022-11-30T05:56:57.584Z,16.13
2022-11-30T05:59:23.922Z,14.88
2022-11-30T06:01:53.504Z,15.80
2022-11-30T06:04:19.896Z,16.42
2022-11-30T06:06:46.222Z,15.45
2022-11-30T06:09:12.818Z,15.50
2022-11-30T06:11:39.081Z,15.45
2022-11-30T06:14:05.495Z,16.13
2022-11-30T06:16:31.846Z,15.30
2022-11-30T06:18:58.217Z,15.07
2022-11-30T06:21:25.058Z,14.77
2022-11-30T06:23:51.949Z,15.40
2022-11-30T06:26:18.252Z,15.73
2022-11-30T06:28:48.236Z,14.60
2022-11-30T06:31:15.592Z,13.88
2022-11-30T06:33:41.951Z,14.20
2022-11-30T06:36:08.477Z,14.43
2022-11-30T06:38:34.757Z,13.38
2022-11-30T06:41:07.627Z,15.10
2022-11-30T06:43:34.543Z,14.57
2022-11-30T06:46:01.526Z,14.00
2022-11-30T06:48:27.829Z,13.73
2022-11-30T06:50:54.306Z,12.68
2022-11-30T06:53:20.636Z,14.75
2022-11-30T06:55:46.993Z,14.95
2022-11-30T06:58:13.315Z,14.75
2022-11-30T07:00:39.720Z,13.70
2022-11-30T07:03:06.406Z,14.27
2022-11-30T07:05:34.272Z,14.48
2022-11-30T07:08:00.683Z,14.35
2022-11-30T07:10:27.533Z,17.38
2022-11-30T07:12:53.800Z,17.02
2022-11-30T07:15:20.126Z,14.68
2022-11-30T07:17:46.480Z,16.63
2022-11-30T07:20:13.081Z,19.70
2022-11-30T07:22:39.559Z,16.50
2022-11-30T07:25:24.616Z,17.08
2022-11-30T07:27:50.964Z,28.23
2022-11-30T07:30:17.439Z,16.45
2022-11-30T07:32:43.712Z,17.55
2022-11-30T07:35:10.015Z,21.20
2022-11-30T07:37:36.330Z,22.58
2022-11-30T07:40:03.429Z,15.55
2022-11-30T07:42:29.780Z,17.13
2022-11-30T07:44:59.038Z,20.63
2022-11-30T07:47:25.738Z,19.52
2022-11-30T07:49:52.006Z,18.67
2022-11-30T07:52:18.293Z,18.02
2022-11-30T07:54:44.755Z,14.77
2022-11-30T07:57:11.210Z,16.25
2022-11-30T07:59:37.565Z,14.45
2022-11-30T08:02:03.930Z,14.55
2022-11-30T08:04:30.292Z,14.70
2022-11-30T08:06:56.627Z,15.15
2022-11-30T08:09:22.891Z,17.63
2022-11-30T08:11:49.221Z,15.10
2022-11-30T08:14:15.550Z,16.65
2022-11-30T08:16:44.130Z,15.88
2022-11-30T08:19:10.894Z,15.05
2022-11-30T08:21:38.045Z,15.38
2022-11-30T08:24:04.538Z,14.68
2022-11-30T08:26:32.716Z,14.73
2022-11-30T08:28:59.677Z,15.55
2022-11-30T08:31:27.759Z,14.85
2022-11-30T08:33:58.687Z,15.38
2022-11-30T08:36:26.258Z,14.35
2022-11-30T08:38:52.577Z,14.88
2022-11-30T08:41:20.277Z,14.50
2022-11-30T08:43:46.856Z,13.85
2022-11-30T08:52:15.845Z,17.30
2022-11-30T08:54:35.028Z,18.48
2022-11-30T08:57:01.897Z,16.92
2022-11-30T08:59:30.485Z,16.02
2022-11-30T09:01:56.725Z,17.50
2022-11-30T09:04:23.057Z,15.23
2022-11-30T09:06:49.407Z,16.58
2022-11-30T09:09:15.787Z,16.98
2022-11-30T09:11:42.070Z,17.95
2022-11-30T09:14:12.286Z,16.38
2022-11-30T09:16:38.635Z,16.58
2022-11-30T09:19:04.951Z,16.60
2022-11-30T09:21:31.483Z,16.10
2022-11-30T09:23:57.917Z,15.68
2022-11-30T09:26:25.537Z,16.35
2022-11-30T09:28:52.778Z,16.17
2022-11-30T09:31:20.372Z,15.40
2022-11-30T09:33:46.942Z,17.48
2022-11-30T09:36:14.694Z,16.98
2022-11-30T09:38:44.354Z,19.00
2022-11-30T09:41:23.534Z,19.00
2022-11-30T09:43:59.381Z,18.60
2022-11-30T09:46:28.145Z,18.50
2022-11-30T09:48:59.418Z,18.92
2022-11-30T09:51:27.801Z,19.13
2022-11-30T09:53:59.340Z,18.95
2022-11-30T09:56:33.520Z,19.33
2022-11-30T09:59:06.564Z,18.98
2022-11-30T10:01:37.478Z,20.15
2022-11-30T10:04:04.234Z,20.95
2022-11-30T10:06:45.849Z,21.10
2022-11-30T10:09:26.155Z,19.60
2022-11-30T10:11:52.431Z,23.30
2022-11-30T10:14:21.787Z,21.80
2022-11-30T10:17:06.900Z,21.63
2022-11-30T10:19:51.997Z,21.93
2022-11-30T10:22:25.592Z,22.10
2022-11-30T10:25:15.151Z,23.63
2022-11-30T10:27:54.400Z,22.08
2022-11-30T10:30:22.458Z,23.52
2022-11-30T10:32:51.704Z,22.50
2022-11-30T10:35:24.330Z,24.50
2022-11-30T10:37:51.991Z,21.08
2022-11-30T10:40:22.637Z,22.17
2022-11-30T10:43:04.811Z,21.80
2022-11-30T10:45:32.321Z,21.73
2022-11-30T10:48:12.978Z,21.85
2022-11-30T10:50:40.104Z,21.75
2022-11-30T10:53:06.644Z,21.50
2022-11-30T10:55:39.116Z,20.00
2022-11-30T10:58:09.792Z,20.27
2022-11-30T11:00:36.136Z,21.38
2022-11-30T11:03:02.474Z,20.83
2022-11-30T11:05:30.175Z,20.80
2022-11-30T11:08:07.137Z,21.38
2022-11-30T11:10:33.787Z,20.25
2022-11-30T11:13:00.164Z,21.33
2022-11-30T11:15:28.004Z,19.40
2022-11-30T11:18:14.286Z,19.42
2022-11-30T11:20:43.252Z,19.60
2022-11-30T11:23:20.566Z,18.83
2022-11-30T11:25:50.052Z,20.25
2022-11-30T11:28:18.866Z,19.27
2022-11-30T11:30:45.173Z,19.92
2022-11-30T11:33:14.496Z,19.42
2022-11-30T11:35:44.408Z,20.55
2022-11-30T11:38:19.955Z,19.33
2022-11-30T11:43:16.223Z,17.85
2022-11-30T11:45:50.250Z,18.20
2022-11-30T11:48:35.816Z,18.40
2022-11-30T11:51:08.079Z,18.65
2022-11-30T11:53:39.577Z,19.08
2022-11-30T11:56:12.063Z,18.13
2022-11-30T11:58:43.761Z,18.15
2022-11-30T12:01:39.315Z,17.95
2022-11-30T12:04:13.001Z,18.17
2022-11-30T12:06:39.933Z,17.30
2022-11-30T12:09:13.589Z,18.73
2022-11-30T12:11:47.428Z,18.77
2022-11-30T12:14:14.896Z,17.20
2022-11-30T12:16:49.559Z,17.85
2022-11-30T12:19:23.770Z,17.20
2022-11-30T12:21:59.179Z,17.90
2022-11-30T12:24:48.903Z,16.85
2022-11-30T12:27:20.215Z,18.23
2022-11-30T12:29:57.334Z,18.55
2022-11-30T12:32:29.592Z,18.02
2022-11-30T12:35:09.153Z,17.80
2022-11-30T12:37:47.457Z,17.85
2022-11-30T12:40:29.109Z,17.20
2022-11-30T12:42:58.183Z,17.88
2022-11-30T12:45:39.708Z,18.48
2022-11-30T12:48:23.322Z,18.33
2022-11-30T12:51:01.857Z,19.38
2022-11-30T12:53:28.135Z,17.70
2022-11-30T12:55:57.270Z,18.75
2022-11-30T12:58:39.470Z,16.77
2022-11-30T13:01:21.546Z,18.38
2022-11-30T13:03:55.794Z,18.25
2022-11-30T13:06:24.759Z,17.67
2022-11-30T13:09:05.307Z,18.75
2022-11-30T13:11:38.947Z,16.88
2022-11-30T13:14:13.265Z,18.25
2022-11-30T13:16:40.376Z,18.73
2022-11-30T13:19:25.367Z,19.70
2022-11-30T13:22:03.678Z,19.80
2022-11-30T13:24:35.166Z,20.40
2022-11-30T13:27:06.404Z,20.38
2022-11-30T13:29:51.340Z,20.35
2022-11-30T13:32:55.294Z,18.98
2022-11-30T13:35:22.653Z,19.38
2022-11-30T13:38:20.693Z,18.27
2022-11-30T13:41:00.965Z,18.80
2022-11-30T13:43:29.244Z,18.55
2022-11-30T13:46:06.175Z,17.08
2022-11-30T13:48:33.905Z,16.70
2022-11-30T13:51:00.547Z,18.15
2022-11-30T13:53:34.079Z,16.90
2022-11-30T13:56:01.691Z,15.95
2022-11-30T13:58:28.793Z,15.20
2022-11-30T14:01:01.527Z,14.38
2022-11-30T14:03:29.406Z,15.20
2022-11-30T14:05:56.777Z,15.07
2022-11-30T14:08:23.069Z,14.35
2022-11-30T14:10:50.642Z,14.07
2022-11-30T14:13:21.164Z,13.40
2022-11-30T14:15:47.459Z,13.55
2022-11-30T14:18:19.622Z,13.63
2022-11-30T14:20:51.424Z,13.38
2022-11-30T14:23:36.538Z,13.63
2022-11-30T14:26:11.006Z,13.60
2022-11-30T14:28:40.334Z,13.50
2022-11-30T14:31:09.040Z,13.93
2022-11-30T14:33:44.075Z,12.80
2022-11-30T14:36:11.246Z,13.80
2022-11-30T14:38:42.314Z,14.27
2022-11-30T14:41:25.797Z,12.43
2022-11-30T14:44:24.641Z,12.60
2022-11-30T14:46:51.072Z,13.20
2022-11-30T14:49:22.314Z,13.02
2022-11-30T14:52:14.716Z,13.38
2022-11-30T14:54:44.122Z,14.07
2022-11-30T14:57:29.431Z,13.07
2022-11-30T14:59:56.208Z,13.43
2022-11-30T15:02:38.533Z,13.15
2022-11-30T15:05:06.801Z,13.68
2022-11-30T15:07:34.933Z,13.02
2022-11-30T15:10:06.522Z,12.82
2022-11-30T15:12:33.391Z,12.57
2022-11-30T15:15:03.876Z,13.32
2022-11-30T15:17:30.130Z,12.30
2022-11-30T15:19:56.388Z,14.80
2022-11-30T15:22:23.197Z,13.07
2022-11-30T15:24:49.974Z,13.10
2022-11-30T15:27:21.193Z,14.55
2022-11-30T15:30:05.979Z,13.85
2022-11-30T15:32:32.280Z,14.85
2022-11-30T15:35:00.741Z,13.25
2022-11-30T15:37:35.148Z,14.27
2022-11-30T15:40:02.236Z,14.40
2022-11-30T15:42:29.898Z,15.07
2022-11-30T15:45:14.627Z,14.95
2022-11-30T15:47:41.222Z,16.05
2022-11-30T15:50:26.279Z,16.25
2022-11-30T15:52:54.052Z,14.23
2022-11-30T15:55:59.068Z,14.93
2022-11-30T15:58:29.626Z,14.05
2022-11-30T16:00:59.802Z,15.02
2022-11-30T16:03:26.134Z,14.02
2022-11-30T16:05:58.871Z,14.73
2022-11-30T16:08:25.351Z,14.55
2022-11-30T16:10:52.281Z,15.23
2022-11-30T16:13:19.830Z,16.42
2022-11-30T16:15:47.463Z,16.08
2022-11-30T16:18:15.954Z,15.38
2022-11-30T16:20:42.677Z,15.27
2022-11-30T16:23:15.068Z,15.82
2022-11-30T16:25:42.570Z,16.80
2022-11-30T16:28:09.284Z,14.52
2022-11-30T16:30:35.814Z,15.05
2022-11-30T16:33:02.221Z,16.60
2022-11-30T16:35:40.377Z,17.33
2022-11-30T16:38:06.829Z,16.67
2022-11-30T16:40:38.581Z,16.27
2022-11-30T16:43:05.680Z,14.80
2022-11-30T16:45:36.059Z,16.55
2022-11-30T16:48:02.362Z,16.67
2022-11-30T16:50:28.589Z,17.92
2022-11-30T16:52:54.952Z,16.58
2022-11-30T16:55:28.960Z,18.15
2022-11-30T16:57:55.691Z,16.35
2022-11-30T17:00:22.316Z,15.98
2022-11-30T17:02:53.863Z,17.35
2022-11-30T17:05:20.173Z,16.27
2022-11-30T17:07:46.555Z,17.70
2022-11-30T17:10:13.319Z,17.40
2022-11-30T17:12:40.319Z,17.63
2022-11-30T17:15:07.312Z,17.02
2022-11-30T17:17:33.643Z,18.33
2022-11-30T17:19:59.926Z,17.85
2022-11-30T17:22:26.216Z,18.00
2022-11-30T17:24:52.518Z,18.08
2022-11-30T17:27:18.947Z,16.90
2022-11-30T17:29:46.452Z,18.77
2022-11-30T17:32:12.867Z,18.60
2022-11-30T17:34:39.196Z,17.90
2022-11-30T17:37:08.908Z,18.35
2022-11-30T17:39:36.127Z,18.08
2022-11-30T17:42:02.445Z,18.77
2022-11-30T17:44:28.871Z,17.60
2022-11-30T17:46:55.184Z,18.23
2022-11-30T17:49:21.493Z,18.63
2022-11-30T17:51:47.927Z,18.77
2022-11-30T17:54:14.256Z,19.15
2022-11-30T17:56:41.204Z,19.15
2022-11-30T17:59:07.500Z,18.60
2022-11-30T18:01:33.879Z,18.55
2022-11-30T18:04:00.758Z,19.00
2022-11-30T18:06:27.442Z,19.05
2022-11-30T18:08:53.827Z,19.65
2022-11-30T18:11:21.590Z,21.08
2022-11-30T18:13:50.016Z,19.35
2022-11-30T18:16:17.556Z,19.70
2022-11-30T18:18:47.659Z,20.55
2022-11-30T18:21:15.582Z,18.45
2022-11-30T18:23:42.488Z,19.98
2022-11-30T18:26:11.480Z,20.17
2022-11-30T18:28:38.017Z,19.00
2022-11-30T18:31:06.377Z,20.95
2022-11-30T18:33:33.924Z,20.50
2022-11-30T18:36:00.815Z,18.95
2022-11-30T18:38:29.691Z,21.15
2022-11-30T18:40:59.141Z,21.65
2022-11-30T18:43:25.557Z,20.45
2022-11-30T18:45:51.900Z,21.25
2022-11-30T18:48:18.156Z,21.02
2022-11-30T18:50:44.767Z,21.50
2022-11-30T18:53:16.602Z,22.33
2022-11-30T18:55:44.562Z,20.77
2022-11-30T18:58:11.006Z,20.73
2022-11-30T19:00:37.508Z,20.17
2022-11-30T19:03:03.924Z,20.73
2022-11-30T19:05:34.792Z,20.38
2022-11-30T19:08:05.500Z,20.38
2022-11-30T19:10:33.624Z,19.63
2022-11-30T19:13:00.209Z,19.73
2022-11-30T19:15:26.510Z,21.95
2022-11-30T19:17:54.615Z,20.90
2022-11-30T19:20:20.924Z,20.25
2022-11-30T19:22:47.707Z,21.10
2022-11-30T19:25:18.809Z,19.17
2022-11-30T19:27:45.413Z,20.80
2022-11-30T19:30:12.455Z,21.40
2022-11-30T19:32:38.712Z,21.00
2022-11-30T19:35:05.405Z,21.13
2022-11-30T19:37:31.711Z,21.23
2022-11-30T19:39:57.940Z,21.48
2022-11-30T19:42:24.274Z,21.20
2022-11-30T19:44:50.647Z,21.95
2022-11-30T19:47:17.056Z,22.25
2022-11-30T19:49:43.640Z,23.50
2022-11-30T19:52:10.024Z,23.27
2022-11-30T19:54:36.284Z,22.42
2022-11-30T19:57:02.574Z,22.40
2022-11-30T19:59:28.875Z,23.70
2022-11-30T20:01:55.250Z,21.45
2022-11-30T20:04:21.771Z,21.30
2022-11-30T20:06:48.195Z,22.27
2022-11-30T20:09:14.527Z,19.70
2022-11-30T20:11:41.434Z,21.02
2022-11-30T20:14:07.755Z,21.42
2022-11-30T20:16:34.090Z,21.58
2022-11-30T20:19:01.183Z,21.90
2022-11-30T20:21:28.876Z,20.88
2022-11-30T20:23:58.133Z,21.30
2022-11-30T20:26:29.989Z,22.05
2022-11-30T20:28:56.808Z,23.40
2022-11-30T20:31:23.702Z,23.20
2022-11-30T20:33:50.828Z,24.08
2022-11-30T20:36:17.900Z,23.58
2022-11-30T20:38:44.437Z,22.75
2022-11-30T20:41:12.506Z,24.63
2022-11-30T20:43:38.837Z,24.70
2022-11-30T20:46:15.392Z,25.83
2022-11-30T20:48:44.841Z,22.95
2022-11-30T20:53:59.577Z,22.02
2022-11-30T20:56:26.586Z,23.52
2022-11-30T20:58:52.868Z,24.25
2022-11-30T21:01:20.680Z,22.60
2022-11-30T21:03:47.586Z,22.85
2022-11-30T21:06:14.493Z,24.08
2022-11-30T21:08:41.371Z,23.85
2022-11-30T21:11:12.457Z,21.92
2022-11-30T21:13:40.273Z,22.75
2022-11-30T21:16:07.379Z,22.67
2022-11-30T21:18:36.675Z,23.52
2022-11-30T21:21:03.877Z,22.52
2022-11-30T21:23:30.322Z,22.25
2022-11-30T21:25:56.566Z,20.88
2022-11-30T21:28:23.091Z,23.08
2022-11-30T21:30:49.417Z,21.83
2022-11-30T21:33:15.753Z,22.00
2022-11-30T21:35:42.544Z,22.23
2022-11-30T21:38:08.835Z,23.00
2022-11-30T21:40:35.073Z,23.10
2022-11-30T21:43:01.307Z,22.05
2022-11-30T21:45:27.600Z,22.58
2022-11-30T21:47:53.910Z,22.60
2022-11-30T21:50:25.760Z,23.17
2022-11-30T21:52:53.437Z,22.83
2022-11-30T21:55:19.684Z,22.55
2022-11-30T21:57:45.927Z,24.02
2022-11-30T22:00:15.418Z,22.75
2022-11-30T22:02:41.753Z,24.05
2022-11-30T22:05:08.336Z,22.90
2022-11-30T22:07:34.633Z,23.17
2022-11-30T22:10:00.893Z,22.27
2022-11-30T22:12:27.208Z,22.90
2022-11-30T22:14:53.464Z,22.65
2022-11-30T22:17:19.763Z,22.48
2022-11-30T22:19:46.404Z,21.75
2022-11-30T22:22:12.834Z,22.80
2022-11-30T22:24:39.560Z,22.90
2022-11-30T22:27:05.947Z,22.05
2022-11-30T22:29:32.317Z,22.90
2022-11-30T22:31:58.565Z,23.75
2022-11-30T22:34:24.902Z,23.52
2022-11-30T22:36:51.324Z,24.52
2022-11-30T22:39:18.989Z,23.30
2022-11-30T22:41:45.949Z,25.13
2022-11-30T22:44:14.525Z,22.85
2022-11-30T22:46:41.538Z,22.85
2022-11-30T22:49:09.520Z,23.05
2022-11-30T22:51:36.574Z,24.00
2022-11-30T22:54:02.920Z,24.48
2022-11-30T22:56:30.509Z,23.65
2022-11-30T22:58:58.977Z,23.67
2022-11-30T23:01:30.228Z,24.08
2022-11-30T23:04:00.394Z,22.77
2022-11-30T23:06:27.007Z,24.77
2022-11-30T23:08:53.506Z,22.70
2022-11-30T23:11:21.043Z,24.73
2022-11-30T23:13:47.491Z,23.17
2022-11-30T23:16:14.660Z,24.30
2022-11-30T23:18:51.119Z,24.05
2022-11-30T23:21:22.043Z,24.10
2022-11-30T23:23:48.554Z,26.23
2022-11-30T23:26:22.826Z,24.23
2022-11-30T23:28:50.273Z,23.55
2022-11-30T23:31:34.050Z,23.30
2022-11-30T23:34:02.778Z,24.10
2022-11-30T23:36:29.058Z,23.38
2022-11-30T23:38:59.943Z,22.75
2022-11-30T23:41:26.437Z,23.70
2022-11-30T23:43:53.001Z,23.88
2022-11-30T23:46:19.387Z,23.08
2022-11-30T23:48:45.781Z,22.90
2022-11-30T23:51:12.556Z,24.25
2022-11-30T23:53:38.990Z,24.52
2022-11-30T23:56:06.825Z,24.80
2022-11-30T23:58:33.587Z,26.08
